Indiana, Pennsylvania
Current Conditions -  °F | °C
As of 3:15 PM on Thursday 23 Oct 2014 (Local Time) from KIDI Reporting Station
Clear Clear  
Wind Chill: 61°   Ceiling: Unl
Heat Index: 61°   Visibility: 10mi
Dew Point: 41°   Wind: 13mph
Humidity: 48%   Direction: 330°NNW
Pressure: 30.04"   Gusts: 20mph
Location:  40.62°N, 79.15°W
Report Text: KIDI 231915Z AUTO 33011G17KT 10SM CLR 16/05 A3004 RMK A01
Loading
Personal Weather Stations






























Interactive Weather Map
Tropical Storm Tracking
New forecast layout! Learn more

10-Day Weather Forecast

Advertisements
Track Severe Weather on mobile